createdAt,value
2023-02-01T00:00:58.250Z,108.72
2023-02-01T00:03:26.511Z,111.38
2023-02-01T00:05:59.539Z,101.63
2023-02-01T00:08:28.229Z,98.28
2023-02-01T00:11:16.587Z,80.25
2023-02-01T00:13:45.086Z,63.67
2023-02-01T00:16:16.546Z,108.63
2023-02-01T00:18:49.605Z,97.50
2023-02-01T00:21:20.445Z,89.13
2023-02-01T00:23:48.831Z,110.60
2023-02-01T00:26:20.333Z,82.90
2023-02-01T00:28:48.726Z,59.65
2023-02-01T00:31:17.032Z,53.90
2023-02-01T00:33:47.932Z,50.90
2023-02-01T00:36:17.693Z,59.95
2023-02-01T00:38:46.325Z,48.97
2023-02-01T00:41:20.567Z,63.08
2023-02-01T00:43:50.907Z,51.22
2023-02-01T00:46:20.798Z,46.65
2023-02-01T00:48:49.701Z,44.72
2023-02-01T00:51:24.643Z,40.40
2023-02-01T00:53:54.595Z,35.25
2023-02-01T00:56:22.860Z,50.05
2023-02-01T00:58:51.979Z,35.58
2023-02-01T01:01:29.827Z,34.22
2023-02-01T01:06:30.071Z,29.00
2023-02-01T01:08:59.546Z,32.30
2023-02-01T01:11:30.428Z,31.25
2023-02-01T01:14:00.480Z,29.05
2023-02-01T01:16:30.681Z,35.45
2023-02-01T01:18:59.947Z,30.88
2023-02-01T01:21:28.545Z,43.75
2023-02-01T01:23:57.034Z,78.03
2023-02-01T01:26:31.712Z,75.85
2023-02-01T01:29:01.328Z,90.15
2023-02-01T01:31:30.375Z,69.47
2023-02-01T01:34:00.643Z,84.75
2023-02-01T01:36:30.918Z,87.03
2023-02-01T01:38:59.519Z,116.93
2023-02-01T01:41:31.604Z,129.73
2023-02-01T01:44:07.593Z,114.85
2023-02-01T01:46:40.356Z,128.18
2023-02-01T01:49:15.663Z,132.05
2023-02-01T01:51:53.332Z,131.63
2023-02-01T01:54:38.934Z,126.57
2023-02-01T01:57:20.667Z,130.10
2023-02-01T01:59:55.469Z,127.28
2023-02-01T02:02:23.909Z,124.15
2023-02-01T02:04:53.847Z,148.40
2023-02-01T02:07:32.395Z,141.10
2023-02-01T02:10:01.504Z,154.13
2023-02-01T02:12:30.364Z,159.57
2023-02-01T02:14:59.024Z,158.65
2023-02-01T02:17:56.643Z,144.05
2023-02-01T02:20:36.506Z,170.55
2023-02-01T02:23:32.657Z,171.52
2023-02-01T02:26:30.218Z,148.15
2023-02-01T02:29:32.527Z,155.98
2023-02-01T02:32:22.192Z,160.83
2023-02-01T02:34:57.794Z,126.25
2023-02-01T02:37:32.427Z,169.27
2023-02-01T02:40:54.801Z,148.82
2023-02-01T02:43:30.351Z,138.40
2023-02-01T02:46:12.796Z,136.85
2023-02-01T02:49:02.132Z,157.55
2023-02-01T02:51:43.016Z,148.32
2023-02-01T02:54:19.183Z,166.20
2023-02-01T02:56:50.985Z,154.82
2023-02-01T02:59:24.684Z,154.23
2023-02-01T03:01:53.736Z,157.55
2023-02-01T03:04:22.004Z,134.13
2023-02-01T03:06:52.794Z,140.70
2023-02-01T03:09:42.033Z,144.32
2023-02-01T03:12:15.002Z,128.38
2023-02-01T03:14:47.222Z,110.10
2023-02-01T03:17:24.117Z,128.60
2023-02-01T03:19:55.025Z,135.75
2023-02-01T03:22:26.882Z,131.93
2023-02-01T03:25:04.290Z,132.95
2023-02-01T03:27:41.207Z,133.55
2023-02-01T03:30:42.126Z,134.15
2023-02-01T03:33:21.579Z,124.70
2023-02-01T03:35:50.852Z,110.40
2023-02-01T03:38:49.524Z,118.43
2023-02-01T03:41:37.965Z,140.77
2023-02-01T03:44:47.204Z,130.23
2023-02-01T03:47:25.738Z,137.77
2023-02-01T03:50:07.244Z,135.93
2023-02-01T03:52:48.856Z,154.10
2023-02-01T03:55:19.579Z,141.97
2023-02-01T03:58:08.427Z,123.97
2023-02-01T04:00:36.942Z,141.60
2023-02-01T04:03:06.916Z,147.43
2023-02-01T04:05:35.760Z,148.23
2023-02-01T04:08:06.911Z,124.63
2023-02-01T04:10:35.220Z,131.77
2023-02-01T04:13:03.598Z,117.05
2023-02-01T04:15:31.916Z,127.10
2023-02-01T04:18:00.104Z,113.90
2023-02-01T04:20:28.581Z,125.97
2023-02-01T04:22:56.801Z,126.22
2023-02-01T04:25:25.064Z,128.30
2023-02-01T04:27:53.384Z,142.38
2023-02-01T04:30:22.039Z,115.72
2023-02-01T04:32:50.360Z,113.22
2023-02-01T04:35:18.572Z,114.22
2023-02-01T04:37:46.902Z,99.40
2023-02-01T04:40:15.080Z,108.13
2023-02-01T04:42:43.329Z,87.15
2023-02-01T04:45:12.091Z,112.22
2023-02-01T04:47:40.632Z,107.40
2023-02-01T04:50:09.319Z,126.78
2023-02-01T04:52:38.241Z,121.88
2023-02-01T04:55:07.075Z,103.68
2023-02-01T04:57:35.366Z,83.70
2023-02-01T05:00:03.692Z,71.03
2023-02-01T05:02:31.736Z,75.10
2023-02-01T05:05:00.186Z,70.60
2023-02-01T05:07:28.413Z,64.70
2023-02-01T05:09:56.541Z,71.82
2023-02-01T05:12:24.904Z,80.30
2023-02-01T05:14:53.064Z,84.30
2023-02-01T05:17:21.268Z,78.53
2023-02-01T05:19:49.464Z,67.18
2023-02-01T05:22:17.641Z,78.10
2023-02-01T05:24:46.187Z,61.38
2023-02-01T05:27:14.451Z,70.07
2023-02-01T05:29:42.588Z,69.47
2023-02-01T05:32:21.600Z,69.65
2023-02-01T05:34:51.073Z,79.38
2023-02-01T05:37:19.339Z,69.50
2023-02-01T05:39:47.673Z,73.85
2023-02-01T05:42:16.116Z,60.88
2023-02-01T05:44:44.225Z,59.55
2023-02-01T05:47:12.535Z,68.45
2023-02-01T05:49:40.744Z,62.58
2023-02-01T05:52:09.166Z,80.97
2023-02-01T05:54:37.454Z,60.33
2023-02-01T05:57:05.749Z,71.78
2023-02-01T05:59:33.996Z,69.30
2023-02-01T06:02:02.141Z,66.47
2023-02-01T06:04:30.349Z,56.58
2023-02-01T06:06:58.662Z,64.53
2023-02-01T06:09:26.863Z,67.72
2023-02-01T06:11:55.278Z,53.80
2023-02-01T06:14:23.324Z,56.75
2023-02-01T06:16:51.955Z,66.53
2023-02-01T06:19:20.327Z,75.38
2023-02-01T06:21:48.565Z,70.93
2023-02-01T06:24:17.141Z,61.55
2023-02-01T06:26:45.520Z,56.78
2023-02-01T06:29:14.428Z,54.55
2023-02-01T06:31:42.587Z,59.65
2023-02-01T06:34:10.946Z,60.78
2023-02-01T06:36:39.127Z,55.65
2023-02-01T06:39:07.273Z,49.22
2023-02-01T06:41:35.433Z,61.47
2023-02-01T06:44:03.953Z,49.20
2023-02-01T06:46:32.276Z,48.63
2023-02-01T06:49:00.517Z,55.67
2023-02-01T06:51:29.838Z,54.13
2023-02-01T06:53:59.700Z,48.95
2023-02-01T06:56:27.821Z,50.03
2023-02-01T06:58:56.435Z,53.10
2023-02-01T07:01:24.668Z,56.03
2023-02-01T07:03:53.176Z,46.88
2023-02-01T07:06:21.716Z,52.83
2023-02-01T07:08:50.470Z,39.08
2023-02-01T07:11:21.793Z,57.75
2023-02-01T07:13:50.257Z,50.50
2023-02-01T07:16:21.130Z,56.08
2023-02-01T07:18:51.820Z,63.28
2023-02-01T07:21:21.310Z,45.75
2023-02-01T07:23:49.657Z,40.03
2023-02-01T07:26:18.075Z,37.95
2023-02-01T07:28:46.239Z,41.92
2023-02-01T07:31:17.578Z,57.33
2023-02-01T07:33:46.411Z,38.73
2023-02-01T07:36:17.457Z,38.92
2023-02-01T07:38:46.520Z,29.38
2023-02-01T07:41:15.270Z,36.22
2023-02-01T07:43:43.477Z,35.22
2023-02-01T07:46:13.071Z,25.80
2023-02-01T07:48:41.326Z,30.83
2023-02-01T07:51:14.853Z,25.20
2023-02-01T07:53:44.052Z,22.85
2023-02-01T07:56:17.542Z,18.45
2023-02-01T07:58:50.224Z,24.98
2023-02-01T08:01:20.848Z,28.08
2023-02-01T08:04:00.409Z,38.10
2023-02-01T08:06:31.316Z,25.58
2023-02-01T08:09:00.271Z,24.77
2023-02-01T08:11:30.032Z,22.50
2023-02-01T08:13:59.386Z,27.55
2023-02-01T08:16:28.172Z,22.75
2023-02-01T08:18:56.910Z,20.17
2023-02-01T08:21:28.329Z,25.25
2023-02-01T08:23:56.544Z,21.75
2023-02-01T08:26:27.373Z,35.42
2023-02-01T08:29:01.148Z,31.33
2023-02-01T08:31:30.692Z,33.25
2023-02-01T08:34:02.053Z,27.88
2023-02-01T08:36:32.983Z,36.28
2023-02-01T08:39:01.708Z,34.58
2023-02-01T08:41:31.672Z,38.35
2023-02-01T08:43:59.915Z,31.08
2023-02-01T08:46:28.577Z,28.33
2023-02-01T08:48:56.909Z,32.90
2023-02-01T08:51:25.419Z,34.63
2023-02-01T08:53:53.947Z,34.55
2023-02-01T08:56:22.418Z,46.33
2023-02-01T08:58:53.504Z,30.98
2023-02-01T09:01:21.941Z,28.80
2023-02-01T09:03:50.342Z,31.55
2023-02-01T09:06:18.560Z,27.42
2023-02-01T09:08:46.977Z,32.85
2023-02-01T09:11:18.077Z,29.42
2023-02-01T09:13:46.778Z,25.02
2023-02-01T09:16:17.282Z,21.70
2023-02-01T09:18:55.746Z,26.73
2023-02-01T09:21:30.616Z,20.02
2023-02-01T09:23:59.147Z,14.57
2023-02-01T09:26:32.486Z,32.17
2023-02-01T09:29:02.402Z,45.00
2023-02-01T09:31:31.200Z,32.25
2023-02-01T09:33:59.537Z,37.65
2023-02-01T09:36:30.084Z,28.48
2023-02-01T09:39:00.164Z,19.08
2023-02-01T09:41:57.642Z,21.50
2023-02-01T09:44:43.943Z,30.63
2023-02-01T09:47:15.680Z,23.25
2023-02-01T09:50:14.609Z,29.17
2023-02-01T09:52:47.376Z,22.73
2023-02-01T09:55:21.815Z,28.75
2023-02-01T09:57:57.425Z,32.10
2023-02-01T10:00:30.778Z,34.95
2023-02-01T10:02:59.257Z,27.70
2023-02-01T10:05:59.697Z,22.40
2023-02-01T10:08:43.005Z,21.58
2023-02-01T10:11:32.797Z,28.58
2023-02-01T10:14:22.110Z,20.00
2023-02-01T10:16:59.357Z,15.73
2023-02-01T10:19:49.130Z,19.33
2023-02-01T10:23:04.889Z,22.48
2023-02-01T10:28:17.725Z,9.23
2023-02-01T10:30:49.014Z,13.98
2023-02-01T10:33:25.506Z,14.52
2023-02-01T10:36:07.707Z,13.57
2023-02-01T10:38:36.121Z,24.73
2023-02-01T10:41:25.943Z,28.55
2023-02-01T10:44:00.395Z,33.72
2023-02-01T18:23:23.985Z,26.17
2023-02-01T18:25:56.256Z,38.88
2023-02-01T18:28:24.780Z,26.90
2023-02-01T18:30:53.259Z,24.10
2023-02-01T18:33:22.243Z,25.25
2023-02-01T18:35:50.667Z,25.90
2023-02-01T18:38:18.960Z,31.60
2023-02-01T18:40:55.623Z,22.45
2023-02-01T18:43:23.843Z,19.55
2023-02-01T18:45:52.272Z,18.23
2023-02-01T18:48:20.479Z,24.65
2023-02-01T18:50:48.954Z,41.47
2023-02-01T18:53:20.098Z,28.67
2023-02-01T18:55:49.727Z,29.25
2023-02-01T18:58:18.804Z,23.17
2023-02-01T19:00:47.880Z,28.60
2023-02-01T19:03:17.188Z,37.75
2023-02-01T19:05:46.494Z,17.27
2023-02-01T19:08:15.684Z,35.35
2023-02-01T19:10:44.005Z,28.52
2023-02-01T19:13:15.520Z,28.50
2023-02-01T19:15:44.138Z,27.63
2023-02-01T19:18:12.607Z,42.63
2023-02-01T19:20:43.655Z,34.75
2023-02-01T19:23:12.576Z,27.10
2023-02-01T19:25:45.283Z,60.53
2023-02-01T19:28:13.901Z,46.47
2023-02-01T19:30:42.757Z,101.40
2023-02-01T19:33:11.199Z,79.07
2023-02-01T19:35:39.485Z,71.78
2023-02-01T19:38:07.700Z,136.77
2023-02-01T19:40:36.485Z,184.63
2023-02-01T19:43:05.303Z,85.93
2023-02-01T19:45:33.677Z,61.13
2023-02-01T19:48:01.964Z,62.20
2023-02-01T19:50:30.185Z,105.65
2023-02-01T19:52:58.414Z,92.15
2023-02-01T19:55:26.958Z,120.72
2023-02-01T19:57:55.319Z,145.40
2023-02-01T20:00:22.932Z,125.32
2023-02-01T20:02:51.350Z,78.00
2023-02-01T20:05:19.814Z,52.80
2023-02-01T20:07:48.367Z,52.47
2023-02-01T20:10:16.955Z,31.40
2023-02-01T20:12:47.941Z,60.25
2023-02-01T20:15:16.411Z,80.23
2023-02-01T20:17:44.686Z,82.53
2023-02-01T20:20:14.998Z,50.53
2023-02-01T20:22:43.519Z,25.08
2023-02-01T20:25:12.171Z,29.92
2023-02-01T20:27:41.269Z,46.53
2023-02-01T20:30:13.650Z,41.55
2023-02-01T20:32:42.007Z,55.13
2023-02-01T20:35:10.587Z,113.63
2023-02-01T20:37:38.999Z,122.38
2023-02-01T20:40:07.820Z,85.57
2023-02-01T20:42:36.421Z,122.75
2023-02-01T20:45:08.255Z,80.88
2023-02-01T20:50:04.844Z,129.20
2023-02-01T20:52:33.776Z,164.00
2023-02-01T20:55:02.036Z,197.00
2023-02-01T20:57:30.479Z,120.10
2023-02-01T20:59:58.929Z,88.63
2023-02-01T21:02:27.590Z,96.38
2023-02-01T21:04:56.004Z,93.30
2023-02-01T21:07:24.225Z,99.95
2023-02-01T21:09:54.889Z,141.38
2023-02-01T21:12:23.537Z,144.10
2023-02-01T21:14:51.771Z,58.95
2023-02-01T21:17:20.176Z,57.40
2023-02-01T21:19:48.440Z,92.90
2023-02-01T21:22:16.808Z,130.23
2023-02-01T21:24:45.182Z,128.13
2023-02-01T21:27:13.696Z,144.63
2023-02-01T21:29:42.340Z,131.95
2023-02-01T21:32:10.630Z,119.90
2023-02-01T21:34:39.043Z,109.68
2023-02-01T21:37:07.147Z,63.88
2023-02-01T21:39:35.486Z,50.28
2023-02-01T21:42:03.602Z,40.50
2023-02-01T21:44:31.904Z,50.10
2023-02-01T21:47:00.216Z,44.53
2023-02-01T21:49:29.017Z,25.90
2023-02-01T21:51:57.687Z,24.20
2023-02-01T21:54:26.019Z,18.60
2023-02-01T21:56:54.987Z,17.60
2023-02-01T21:59:23.188Z,32.70
2023-02-01T22:01:51.409Z,34.00
2023-02-01T22:04:19.772Z,36.22
2023-02-01T22:06:48.268Z,27.92
2023-02-01T22:09:24.370Z,35.25
2023-02-01T22:11:54.355Z,40.03
2023-02-01T22:14:23.576Z,45.92
2023-02-01T22:16:52.134Z,35.15
2023-02-01T22:19:20.673Z,39.33
2023-02-01T22:21:49.571Z,37.90
2023-02-01T22:24:19.753Z,36.38
2023-02-01T22:26:48.755Z,37.97
2023-02-01T22:29:17.472Z,85.88
2023-02-01T22:31:46.572Z,92.13
2023-02-01T22:34:15.228Z,126.80
2023-02-01T22:36:43.584Z,96.25
2023-02-01T22:39:12.138Z,67.45
2023-02-01T22:41:40.325Z,63.38
2023-02-01T22:44:08.766Z,44.50
2023-02-01T22:46:37.106Z,35.25
2023-02-01T22:49:05.694Z,39.58
2023-02-01T22:51:34.326Z,50.45
2023-02-01T22:54:04.257Z,45.33
2023-02-01T22:56:37.284Z,47.58
2023-02-01T22:59:08.245Z,51.20
2023-02-01T23:01:36.576Z,70.07
2023-02-01T23:04:06.938Z,73.53
2023-02-01T23:06:35.643Z,90.32
2023-02-01T23:09:13.928Z,88.18
2023-02-01T23:11:42.823Z,70.43
2023-02-01T23:14:12.183Z,71.63
2023-02-01T23:16:40.676Z,48.05
2023-02-01T23:19:08.968Z,45.45
2023-02-01T23:21:37.215Z,47.70
2023-02-01T23:24:06.784Z,56.63
2023-02-01T23:26:35.654Z,92.82
2023-02-01T23:29:05.050Z,148.23
2023-02-01T23:31:35.475Z,159.48
2023-02-01T23:34:05.366Z,154.90
2023-02-01T23:36:34.251Z,156.23
2023-02-01T23:39:02.470Z,127.68
2023-02-01T23:41:30.721Z,89.45
2023-02-01T23:43:59.028Z,65.03
2023-02-01T23:46:29.083Z,59.45
2023-02-01T23:48:57.836Z,81.70
2023-02-01T23:51:26.894Z,65.15
2023-02-01T23:53:55.902Z,72.63
2023-02-01T23:56:32.654Z,97.57
2023-02-01T23:59:02.648Z,146.10
